sensor_id;sensor_type;location;lat;lon;timestamp;pressure;altitude;pressure_sealevel;temperature;humidity
5691;BME280;2870;42.680;23.364;2022-10-04T00:00:27;95382.13;;;12.13;73.16
5691;BME280;2870;42.680;23.364;2022-10-04T00:03:04;95387.19;;;12.07;72.83
5691;BME280;2870;42.680;23.364;2022-10-04T00:05:33;95396.19;;;12.29;73.93
5691;BME280;2870;42.680;23.364;2022-10-04T00:08:12;95387.03;;;11.90;73.48
5691;BME280;2870;42.680;23.364;2022-10-04T00:10:45;95394.69;;;12.12;73.38
5691;BME280;2870;42.680;23.364;2022-10-04T00:13:22;95387.03;;;11.98;73.39
5691;BME280;2870;42.680;23.364;2022-10-04T00:15:50;95389.84;;;12.05;73.57
5691;BME280;2870;42.680;23.364;2022-10-04T00:18:21;95383.28;;;12.03;73.45
5691;BME280;2870;42.680;23.364;2022-10-04T00:20:59;95379.91;;;11.89;73.53
5691;BME280;2870;42.680;23.364;2022-10-04T00:23:28;95379.69;;;12.17;75.90
5691;BME280;2870;42.680;23.364;2022-10-04T00:25:58;95372.63;;;11.86;73.61
5691;BME280;2870;42.680;23.364;2022-10-04T00:28:41;95372.41;;;12.14;74.26
5691;BME280;2870;42.680;23.364;2022-10-04T00:31:17;95338.84;;;12.01;73.05
5691;BME280;2870;42.680;23.364;2022-10-04T00:33:45;95369.03;;;12.08;72.50
5691;BME280;2870;42.680;23.364;2022-10-04T00:36:38;95365.44;;;12.15;74.78
5691;BME280;2870;42.680;23.364;2022-10-04T00:39:25;95360.56;;;12.24;73.17
5691;BME280;2870;42.680;23.364;2022-10-04T00:42:13;95354.34;;;12.33;74.34
5691;BME280;2870;42.680;23.364;2022-10-04T00:44:46;95361.66;;;12.36;73.58
5691;BME280;2870;42.680;23.364;2022-10-04T00:47:25;95356.75;;;12.44;72.92
5691;BME280;2870;42.680;23.364;2022-10-04T00:50:02;95349.38;;;11.93;71.62
5691;BME280;2870;42.680;23.364;2022-10-04T00:52:34;95340.16;;;11.85;71.99
5691;BME280;2870;42.680;23.364;2022-10-04T00:55:05;95335.28;;;12.08;73.52
5691;BME280;2870;42.680;23.364;2022-10-04T00:57:38;95327.81;;;11.88;72.15
5691;BME280;2870;42.680;23.364;2022-10-04T01:00:11;95329.69;;;11.85;72.92
5691;BME280;2870;42.680;23.364;2022-10-04T01:02:48;95332.09;;;11.66;72.80
5691;BME280;2870;42.680;23.364;2022-10-04T01:05:19;95328.94;;;11.70;72.58
5691;BME280;2870;42.680;23.364;2022-10-04T01:07:50;95336.97;;;12.11;73.84
5691;BME280;2870;42.680;23.364;2022-10-04T01:10:20;95336.56;;;12.23;71.92
5691;BME280;2870;42.680;23.364;2022-10-04T01:12:52;95335.28;;;11.85;71.56
5691;BME280;2870;42.680;23.364;2022-10-04T01:15:25;95342.41;;;12.09;73.31
5691;BME280;2870;42.680;23.364;2022-10-04T01:18:12;95339.03;;;11.96;71.11
5691;BME280;2870;42.680;23.364;2022-10-04T01:20:49;95337.19;;;11.83;71.30
5691;BME280;2870;42.680;23.364;2022-10-04T01:23:41;95329.69;;;11.93;72.21
5691;BME280;2870;42.680;23.364;2022-10-04T01:26:35;95338.88;;;11.86;71.73
5691;BME280;2870;42.680;23.364;2022-10-04T01:29:06;95324.84;;;11.86;72.12
5691;BME280;2870;42.680;23.364;2022-10-04T01:31:36;95331.16;;;11.79;71.99
5691;BME280;2870;42.680;23.364;2022-10-04T01:34:04;95329.69;;;11.93;74.23
5691;BME280;2870;42.680;23.364;2022-10-04T01:36:32;95329.50;;;11.99;72.67
5691;BME280;2870;42.680;23.364;2022-10-04T01:39:01;95328.00;;;11.90;71.78
5691;BME280;2870;42.680;23.364;2022-10-04T01:41:36;95336.78;;;11.79;71.02
5691;BME280;2870;42.680;23.364;2022-10-04T01:44:08;95338.66;;;11.53;71.72
5691;BME280;2870;42.680;23.364;2022-10-04T01:46:38;95326.88;;;11.47;72.18
5691;BME280;2870;42.680;23.364;2022-10-04T01:49:09;95335.13;;;11.53;72.45
5691;BME280;2870;42.680;23.364;2022-10-04T01:51:42;95337.53;;;11.56;73.15
5691;BME280;2870;42.680;23.364;2022-10-04T01:54:13;95332.66;;;11.49;72.92
5691;BME280;2870;42.680;23.364;2022-10-04T01:56:45;95326.47;;;11.51;71.63
5691;BME280;2870;42.680;23.364;2022-10-04T01:59:17;95335.47;;;11.72;73.13
5691;BME280;2870;42.680;23.364;2022-10-04T02:01:51;95339.06;;;11.57;72.45
5691;BME280;2870;42.680;23.364;2022-10-04T02:04:22;95306.06;;;11.27;71.78
5691;BME280;2870;42.680;23.364;2022-10-04T02:06:54;95332.50;;;11.47;71.41
5691;BME280;2870;42.680;23.364;2022-10-04T02:09:27;95354.75;;;11.45;72.02
5691;BME280;2870;42.680;23.364;2022-10-04T02:11:56;95343.72;;;11.55;73.67
5691;BME280;2870;42.680;23.364;2022-10-04T02:14:25;95348.00;;;11.33;72.38
5691;BME280;2870;42.680;23.364;2022-10-04T02:16:53;95353.41;;;11.15;72.82
5691;BME280;2870;42.680;23.364;2022-10-04T02:19:24;95350.41;;;11.21;72.93
5691;BME280;2870;42.680;23.364;2022-10-04T02:21:57;95354.91;;;11.17;72.85
5691;BME280;2870;42.680;23.364;2022-10-04T02:24:26;95351.72;;;11.12;73.90
5691;BME280;2870;42.680;23.364;2022-10-04T02:26:53;95350.22;;;11.11;73.73
5691;BME280;2870;42.680;23.364;2022-10-04T02:29:20;95343.66;;;11.01;74.34
5691;BME280;2870;42.680;23.364;2022-10-04T02:31:47;95350.25;;;11.19;76.25
5691;BME280;2870;42.680;23.364;2022-10-04T02:34:33;95354.22;;;11.47;75.64
5691;BME280;2870;42.680;23.364;2022-10-04T02:37:01;95362.44;;;11.37;74.43
5691;BME280;2870;42.680;23.364;2022-10-04T02:39:33;95362.56;;;11.16;74.62
5691;BME280;2870;42.680;23.364;2022-10-04T02:42:08;95366.28;;;11.03;74.69
5691;BME280;2870;42.680;23.364;2022-10-04T02:44:40;95327.00;;;11.03;77.24
5691;BME280;2870;42.680;23.364;2022-10-04T02:47:12;95371.16;;;11.10;75.25
5691;BME280;2870;42.680;23.364;2022-10-04T02:49:44;95370.63;;;11.12;76.93
5691;BME280;2870;42.680;23.364;2022-10-04T02:52:17;95373.78;;;11.08;76.56
5691;BME280;2870;42.680;23.364;2022-10-04T02:54:53;95381.75;;;10.89;76.33
5691;BME280;2870;42.680;23.364;2022-10-04T02:57:25;95375.97;;;10.95;76.77
5691;BME280;2870;42.680;23.364;2022-10-04T03:00:03;95382.56;;;10.97;76.85
5691;BME280;2870;42.680;23.364;2022-10-04T03:02:36;95372.59;;;10.81;77.08
5691;BME280;2870;42.680;23.364;2022-10-04T03:05:06;95387.94;;;10.87;77.37
5691;BME280;2870;42.680;23.364;2022-10-04T03:07:35;95393.63;;;11.03;78.12
5691;BME280;2870;42.680;23.364;2022-10-04T03:10:06;95400.00;;;11.11;76.86
5691;BME280;2870;42.680;23.364;2022-10-04T03:12:34;95396.06;;;11.06;78.02
5691;BME280;2870;42.680;23.364;2022-10-04T03:15:05;95395.47;;;11.00;77.50
5691;BME280;2870;42.680;23.364;2022-10-04T03:17:33;95392.50;;;11.06;78.67
5691;BME280;2870;42.680;23.364;2022-10-04T03:20:00;95393.84;;;11.12;78.81
5691;BME280;2870;42.680;23.364;2022-10-04T03:22:28;95396.56;;;10.90;77.68
5691;BME280;2870;42.680;23.364;2022-10-04T03:24:56;95360.63;;;10.80;78.46
5691;BME280;2870;42.680;23.364;2022-10-04T03:27:28;95401.19;;;11.31;78.56
5691;BME280;2870;42.680;23.364;2022-10-04T03:29:57;95406.25;;;11.40;76.85
5691;BME280;2870;42.680;23.364;2022-10-04T03:32:27;95409.03;;;11.25;76.79
5691;BME280;2870;42.680;23.364;2022-10-04T03:34:56;95403.38;;;11.17;78.21
5691;BME280;2870;42.680;23.364;2022-10-04T03:37:25;95402.66;;;11.24;77.54
5691;BME280;2870;42.680;23.364;2022-10-04T03:39:54;95413.75;;;11.45;76.83
5691;BME280;2870;42.680;23.364;2022-10-04T03:42:23;95412.41;;;11.31;77.13
5691;BME280;2870;42.680;23.364;2022-10-04T03:44:56;95411.59;;;11.07;76.05
5691;BME280;2870;42.680;23.364;2022-10-04T03:47:28;95416.06;;;11.03;76.13
5691;BME280;2870;42.680;23.364;2022-10-04T03:49:58;95422.09;;;11.14;78.48
5691;BME280;2870;42.680;23.364;2022-10-04T03:52:30;95426.63;;;11.25;77.38
5691;BME280;2870;42.680;23.364;2022-10-04T03:55:01;95423.41;;;11.13;76.39
5691;BME280;2870;42.680;23.364;2022-10-04T03:57:29;95424.50;;;11.10;76.47
5691;BME280;2870;42.680;23.364;2022-10-04T03:59:58;95423.75;;;11.02;76.70
5691;BME280;2870;42.680;23.364;2022-10-04T04:02:30;95402.97;;;11.05;77.42
5691;BME280;2870;42.680;23.364;2022-10-04T04:05:05;95422.34;;;11.32;77.90
5691;BME280;2870;42.680;23.364;2022-10-04T04:07:38;95430.19;;;11.26;77.61
5691;BME280;2870;42.680;23.364;2022-10-04T04:10:15;95397.19;;;11.03;77.73
5691;BME280;2870;42.680;23.364;2022-10-04T04:12:45;95436.72;;;11.21;78.39
5691;BME280;2870;42.680;23.364;2022-10-04T04:15:16;95437.81;;;11.10;77.85
5691;BME280;2870;42.680;23.364;2022-10-04T04:17:44;95444.91;;;11.03;78.77
5691;BME280;2870;42.680;23.364;2022-10-04T04:20:21;95445.81;;;10.98;79.89
5691;BME280;2870;42.680;23.364;2022-10-04T04:22:57;95441.25;;;10.87;79.03
5691;BME280;2870;42.680;23.364;2022-10-04T04:25:28;95433.44;;;10.94;80.16
5691;BME280;2870;42.680;23.364;2022-10-04T04:28:01;95449.13;;;10.89;78.56
5691;BME280;2870;42.680;23.364;2022-10-04T04:30:33;95444.13;;;10.95;80.50
5691;BME280;2870;42.680;23.364;2022-10-04T04:33:08;95440.91;;;10.83;79.51
5691;BME280;2870;42.680;23.364;2022-10-04T04:35:36;95459.44;;;10.94;80.39
5691;BME280;2870;42.680;23.364;2022-10-04T04:38:14;95456.63;;;10.94;79.91
5691;BME280;2870;42.680;23.364;2022-10-04T04:40:43;95451.88;;;11.18;78.91
5691;BME280;2870;42.680;23.364;2022-10-04T04:43:13;95453.72;;;11.15;78.80
5691;BME280;2870;42.680;23.364;2022-10-04T04:45:45;95426.81;;;10.76;78.94
5691;BME280;2870;42.680;23.364;2022-10-04T04:48:15;95459.44;;;10.94;78.72
5691;BME280;2870;42.680;23.364;2022-10-04T04:50:48;95459.44;;;10.94;78.87
5691;BME280;2870;42.680;23.364;2022-10-04T04:53:21;95462.78;;;10.85;77.97
5691;BME280;2870;42.680;23.364;2022-10-04T04:55:51;95459.00;;;10.82;79.03
5691;BME280;2870;42.680;23.364;2022-10-04T04:58:24;95463.09;;;10.74;78.45
5691;BME280;2870;42.680;23.364;2022-10-04T05:00:56;95470.88;;;10.96;80.29
5691;BME280;2870;42.680;23.364;2022-10-04T05:03:24;95461.34;;;10.99;79.33
5691;BME280;2870;42.680;23.364;2022-10-04T05:05:54;95462.06;;;10.92;79.77
5691;BME280;2870;42.680;23.364;2022-10-04T05:08:24;95468.25;;;10.98;80.00
5691;BME280;2870;42.680;23.364;2022-10-04T05:11:00;95471.19;;;10.85;77.73
5691;BME280;2870;42.680;23.364;2022-10-04T05:13:33;95468.50;;;11.08;78.30
5691;BME280;2870;42.680;23.364;2022-10-04T05:16:10;95459.97;;;11.29;77.83
5691;BME280;2870;42.680;23.364;2022-10-04T05:18:39;95463.38;;;11.35;76.73
5691;BME280;2870;42.680;23.364;2022-10-04T05:21:09;95471.00;;;11.27;75.52
5691;BME280;2870;42.680;23.364;2022-10-04T05:23:38;95473.56;;;11.17;74.50
5691;BME280;2870;42.680;23.364;2022-10-04T05:26:09;95470.31;;;11.41;75.87
5691;BME280;2870;42.680;23.364;2022-10-04T05:28:37;95474.66;;;11.58;76.67
5691;BME280;2870;42.680;23.364;2022-10-04T05:31:29;95470.81;;;11.32;74.04
5691;BME280;2870;42.680;23.364;2022-10-04T05:33:58;95478.22;;;11.58;75.07
5691;BME280;2870;42.680;23.364;2022-10-04T05:36:38;95487.41;;;11.59;75.48
5691;BME280;2870;42.680;23.364;2022-10-04T05:39:12;95490.91;;;11.44;74.16
5691;BME280;2870;42.680;23.364;2022-10-04T05:41:46;95489.63;;;11.60;74.82
5691;BME280;2870;42.680;23.364;2022-10-04T05:44:24;95492.44;;;11.53;73.90
5691;BME280;2870;42.680;23.364;2022-10-04T05:46:54;95498.53;;;11.87;74.60
5691;BME280;2870;42.680;23.364;2022-10-04T05:49:23;95499.50;;;11.98;74.27
5691;BME280;2870;42.680;23.364;2022-10-04T05:51:53;95498.00;;;12.27;72.95
5691;BME280;2870;42.680;23.364;2022-10-04T05:54:22;95506.22;;;11.87;72.93
5691;BME280;2870;42.680;23.364;2022-10-04T05:57:13;95506.22;;;12.25;73.44
5691;BME280;2870;42.680;23.364;2022-10-04T05:59:58;95517.09;;;12.13;74.12
5691;BME280;2870;42.680;23.364;2022-10-04T06:02:42;95520.13;;;12.31;71.98
5691;BME280;2870;42.680;23.364;2022-10-04T06:05:13;95521.25;;;12.28;72.23
5691;BME280;2870;42.680;23.364;2022-10-04T06:07:48;95519.56;;;12.55;72.04
5691;BME280;2870;42.680;23.364;2022-10-04T06:10:45;95523.13;;;12.33;71.05
5691;BME280;2870;42.680;23.364;2022-10-04T06:13:26;95531.94;;;12.60;72.96
5691;BME280;2870;42.680;23.364;2022-10-04T06:16:11;95525.75;;;12.46;70.78
5691;BME280;2870;42.680;23.364;2022-10-04T06:19:03;95532.13;;;12.54;71.24
5691;BME280;2870;42.680;23.364;2022-10-04T06:21:39;95529.88;;;12.53;72.36
5691;BME280;2870;42.680;23.364;2022-10-04T06:24:14;95542.25;;;12.11;71.77
5691;BME280;2870;42.680;23.364;2022-10-04T06:26:47;95536.25;;;12.15;72.25
5691;BME280;2870;42.680;23.364;2022-10-04T06:29:20;95548.66;;;12.50;72.34
5691;BME280;2870;42.680;23.364;2022-10-04T06:32:05;95546.00;;;12.67;71.08
5691;BME280;2870;42.680;23.364;2022-10-04T06:37:52;95549.19;;;12.71;69.78
5691;BME280;2870;42.680;23.364;2022-10-04T06:40:43;95551.81;;;12.85;69.64
5691;BME280;2870;42.680;23.364;2022-10-04T06:43:38;95556.50;;;12.82;68.77
5691;BME280;2870;42.680;23.364;2022-10-04T06:46:14;95552.88;;;13.12;69.07
5691;BME280;2870;42.680;23.364;2022-10-04T06:48:57;95556.00;;;13.47;68.02
5691;BME280;2870;42.680;23.364;2022-10-04T06:51:38;95553.94;;;13.47;65.73
5691;BME280;2870;42.680;23.364;2022-10-04T06:54:21;95559.19;;;13.51;66.12
5691;BME280;2870;42.680;23.364;2022-10-04T06:57:20;95560.06;;;13.61;64.92
5691;BME280;2870;42.680;23.364;2022-10-04T07:00:02;95557.97;;;14.35;62.46
5691;BME280;2870;42.680;23.364;2022-10-04T07:02:34;95557.47;;;14.78;61.89
5691;BME280;2870;42.680;23.364;2022-10-04T07:05:12;95557.59;;;14.63;61.36
5691;BME280;2870;42.680;23.364;2022-10-04T07:07:43;95564.47;;;14.95;62.68
5691;BME280;2870;42.680;23.364;2022-10-04T07:10:24;95563.69;;;14.52;61.67
5691;BME280;2870;42.680;23.364;2022-10-04T07:13:03;95562.28;;;14.85;59.90
5691;BME280;2870;42.680;23.364;2022-10-04T07:15:40;95569.56;;;15.14;58.19
5691;BME280;2870;42.680;23.364;2022-10-04T07:18:13;95570.41;;;15.76;56.56
5691;BME280;2870;42.680;23.364;2022-10-04T07:20:42;95579.47;;;15.57;56.35
5691;BME280;2870;42.680;23.364;2022-10-04T07:23:14;95574.22;;;14.59;59.03
5691;BME280;2870;42.680;23.364;2022-10-04T07:25:46;95584.03;;;15.18;60.89
5691;BME280;2870;42.680;23.364;2022-10-04T07:28:17;95575.56;;;14.50;59.78
5691;BME280;2870;42.680;23.364;2022-10-04T07:31:04;95579.66;;;14.57;59.20
5691;BME280;2870;42.680;23.364;2022-10-04T07:33:42;95580.47;;;14.17;60.47
5691;BME280;2870;42.680;23.364;2022-10-04T07:36:11;95588.28;;;13.53;61.64
5691;BME280;2870;42.680;23.364;2022-10-04T07:38:49;95589.44;;;13.50;62.68
5691;BME280;2870;42.680;23.364;2022-10-04T07:41:21;95587.06;;;13.79;61.96
5691;BME280;2870;42.680;23.364;2022-10-04T07:43:53;95588.31;;;13.94;62.32
5691;BME280;2870;42.680;23.364;2022-10-04T07:46:38;95602.25;;;13.92;62.26
5691;BME280;2870;42.680;23.364;2022-10-04T07:49:12;95596.00;;;13.53;61.60
5691;BME280;2870;42.680;23.364;2022-10-04T07:51:58;95600.91;;;13.37;61.58
5691;BME280;2870;42.680;23.364;2022-10-04T07:54:35;95594.59;;;13.06;62.33
5691;BME280;2870;42.680;23.364;2022-10-04T07:57:12;95593.63;;;13.11;62.76
5691;BME280;2870;42.680;23.364;2022-10-04T07:59:47;95603.34;;;13.48;61.64
5691;BME280;2870;42.680;23.364;2022-10-04T08:02:24;95595.63;;;13.49;65.31
5691;BME280;2870;42.680;23.364;2022-10-04T08:05:02;95601.81;;;13.55;62.17
5691;BME280;2870;42.680;23.364;2022-10-04T08:07:45;95597.56;;;13.87;61.74
5691;BME280;2870;42.680;23.364;2022-10-04T08:10:21;95597.31;;;14.00;60.64
5691;BME280;2870;42.680;23.364;2022-10-04T08:12:56;95599.72;;;13.56;61.33
5691;BME280;2870;42.680;23.364;2022-10-04T08:15:35;95606.81;;;13.79;61.23
5691;BME280;2870;42.680;23.364;2022-10-04T08:18:20;95599.59;;;13.38;61.82
5691;BME280;2870;42.680;23.364;2022-10-04T08:20:55;95600.84;;;13.60;62.08
5691;BME280;2870;42.680;23.364;2022-10-04T08:23:37;95602.94;;;13.60;61.11
5691;BME280;2870;42.680;23.364;2022-10-04T08:26:14;95602.09;;;13.82;61.52
5691;BME280;2870;42.680;23.364;2022-10-04T08:28:51;95602.19;;;13.59;59.44
5691;BME280;2870;42.680;23.364;2022-10-04T08:31:45;95596.56;;;13.44;60.16
5691;BME280;2870;42.680;23.364;2022-10-04T08:34:23;95605.19;;;13.53;59.74
5691;BME280;2870;42.680;23.364;2022-10-04T08:37:06;95594.09;;;13.63;59.51
5691;BME280;2870;42.680;23.364;2022-10-04T08:39:52;95591.38;;;14.21;59.69
5691;BME280;2870;42.680;23.364;2022-10-04T08:46:04;95582.41;;;16.11;54.67
5691;BME280;2870;42.680;23.364;2022-10-04T08:49:02;95579.22;;;16.51;51.03
5691;BME280;2870;42.680;23.364;2022-10-04T08:52:16;95588.13;;;17.31;51.41
5691;BME280;2870;42.680;23.364;2022-10-04T08:55:23;95585.44;;;17.52;49.30
5691;BME280;2870;42.680;23.364;2022-10-04T08:58:23;95595.84;;;18.46;47.19
5691;BME280;2870;42.680;23.364;2022-10-04T09:00:57;95594.19;;;19.25;46.55
5691;BME280;2870;42.680;23.364;2022-10-04T09:06:43;95553.81;;;17.75;46.13
5691;BME280;2870;42.680;23.364;2022-10-04T09:09:48;95589.34;;;19.27;47.26
5691;BME280;2870;42.680;23.364;2022-10-04T09:12:45;95582.06;;;18.93;44.08
5691;BME280;2870;42.680;23.364;2022-10-04T09:15:21;95591.16;;;19.01;44.68
5691;BME280;2870;42.680;23.364;2022-10-04T09:18:01;95584.81;;;19.34;44.98
5691;BME280;2870;42.680;23.364;2022-10-04T09:20:46;95580.44;;;19.85;43.12
5691;BME280;2870;42.680;23.364;2022-10-04T09:26:20;95584.22;;;18.33;46.24
5691;BME280;2870;42.680;23.364;2022-10-04T09:29:09;95583.22;;;18.59;45.74
5691;BME280;2870;42.680;23.364;2022-10-04T09:31:55;95589.91;;;18.33;47.33
5691;BME280;2870;42.680;23.364;2022-10-04T09:34:39;95592.25;;;19.70;45.27
5691;BME280;2870;42.680;23.364;2022-10-04T09:37:32;95598.25;;;20.19;42.95
5691;BME280;2870;42.680;23.364;2022-10-04T09:43:26;95594.44;;;20.71;43.20
5691;BME280;2870;42.680;23.364;2022-10-04T09:46:12;95599.34;;;20.47;40.86
5691;BME280;2870;42.680;23.364;2022-10-04T09:48:52;95596.81;;;21.22;43.09
5691;BME280;2870;42.680;23.364;2022-10-04T09:51:33;95597.97;;;19.39;42.42
5691;BME280;2870;42.680;23.364;2022-10-04T09:54:14;95593.69;;;17.96;44.99
5691;BME280;2870;42.680;23.364;2022-10-04T09:57:00;95582.47;;;18.59;44.16
5691;BME280;2870;42.680;23.364;2022-10-04T09:59:55;95587.38;;;18.17;45.29
5691;BME280;2870;42.680;23.364;2022-10-04T10:03:01;95584.03;;;18.91;44.35
5691;BME280;2870;42.680;23.364;2022-10-04T10:06:05;95595.53;;;18.42;45.03
5691;BME280;2870;42.680;23.364;2022-10-04T10:08:45;95592.66;;;18.62;45.57
5691;BME280;2870;42.680;23.364;2022-10-04T10:11:22;95603.50;;;18.15;46.98
5691;BME280;2870;42.680;23.364;2022-10-04T10:14:54;95599.34;;;18.16;45.53
5691;BME280;2870;42.680;23.364;2022-10-04T10:17:31;95600.03;;;18.36;47.53
5691;BME280;2870;42.680;23.364;2022-10-04T10:20:23;95594.44;;;18.07;44.89
5691;BME280;2870;42.680;23.364;2022-10-04T10:23:11;95603.91;;;18.50;45.73
5691;BME280;2870;42.680;23.364;2022-10-04T10:25:53;95593.19;;;18.29;46.03
5691;BME280;2870;42.680;23.364;2022-10-04T10:28:41;95601.16;;;18.11;46.46
5691;BME280;2870;42.680;23.364;2022-10-04T10:31:45;95598.72;;;17.30;49.65
5691;BME280;2870;42.680;23.364;2022-10-04T10:37:36;95610.97;;;17.42;48.14
5691;BME280;2870;42.680;23.364;2022-10-04T10:40:27;95564.06;;;17.03;48.14
5691;BME280;2870;42.680;23.364;2022-10-04T10:43:20;95607.53;;;17.63;48.04
5691;BME280;2870;42.680;23.364;2022-10-04T10:46:03;95605.81;;;18.67;46.24
5691;BME280;2870;42.680;23.364;2022-10-04T10:48:44;95616.00;;;19.53;45.97
5691;BME280;2870;42.680;23.364;2022-10-04T10:51:33;95605.63;;;19.37;45.05
5691;BME280;2870;42.680;23.364;2022-10-04T10:54:36;95606.81;;;18.81;44.17
5691;BME280;2870;42.680;23.364;2022-10-04T10:57:21;95615.31;;;18.31;47.08
5691;BME280;2870;42.680;23.364;2022-10-04T11:00:22;95607.13;;;18.06;45.48
5691;BME280;2870;42.680;23.364;2022-10-04T11:03:15;95602.94;;;17.97;47.06
5691;BME280;2870;42.680;23.364;2022-10-04T11:12:25;95612.63;;;17.36;47.77
5691;BME280;2870;42.680;23.364;2022-10-04T11:18:05;95607.69;;;17.36;50.57
5691;BME280;2870;42.680;23.364;2022-10-04T11:20:59;95612.63;;;17.36;51.15
5691;BME280;2870;42.680;23.364;2022-10-04T11:24:10;95601.75;;;18.10;48.54
5691;BME280;2870;42.680;23.364;2022-10-04T11:27:04;95597.97;;;17.20;47.58
5691;BME280;2870;42.680;23.364;2022-10-04T11:29:55;95599.97;;;16.90;48.36
5691;BME280;2870;42.680;23.364;2022-10-04T11:38:33;95601.56;;;17.49;46.94
5691;BME280;2870;42.680;23.364;2022-10-04T11:41:16;95589.06;;;18.61;46.36
5691;BME280;2870;42.680;23.364;2022-10-04T11:44:06;95599.00;;;18.31;46.31
5691;BME280;2870;42.680;23.364;2022-10-04T11:46:45;95605.28;;;18.39;47.62
5691;BME280;2870;42.680;23.364;2022-10-04T11:49:25;95599.53;;;17.89;46.92
5691;BME280;2870;42.680;23.364;2022-10-04T11:52:24;95611.47;;;17.87;46.79
5691;BME280;2870;42.680;23.364;2022-10-04T11:57:58;95608.63;;;17.78;47.34
5691;BME280;2870;42.680;23.364;2022-10-04T12:03:42;95613.50;;;17.58;47.79
5691;BME280;2870;42.680;23.364;2022-10-04T12:06:28;95614.56;;;17.43;47.77
5691;BME280;2870;42.680;23.364;2022-10-04T12:09:03;95606.47;;;17.39;47.76
5691;BME280;2870;42.680;23.364;2022-10-04T12:12:31;95620.59;;;17.10;47.98
5691;BME280;2870;42.680;23.364;2022-10-04T12:15:34;95607.47;;;17.05;48.99
5691;BME280;2870;42.680;23.364;2022-10-04T12:21:37;95596.81;;;17.91;46.67
5691;BME280;2870;42.680;23.364;2022-10-04T12:24:35;95601.47;;;18.06;47.38
5691;BME280;2870;42.680;23.364;2022-10-04T12:27:29;95604.84;;;18.33;47.35
5691;BME280;2870;42.680;23.364;2022-10-04T12:30:22;95602.91;;;18.26;46.02
5691;BME280;2870;42.680;23.364;2022-10-04T12:32:58;95602.50;;;18.00;45.64
5691;BME280;2870;42.680;23.364;2022-10-04T12:35:38;95607.13;;;18.06;45.47
5691;BME280;2870;42.680;23.364;2022-10-04T12:41:11;95604.56;;;17.52;45.99
5691;BME280;2870;42.680;23.364;2022-10-04T12:43:54;95606.25;;;17.93;45.56
5691;BME280;2870;42.680;23.364;2022-10-04T12:46:36;95613.34;;;17.46;46.64
5691;BME280;2870;42.680;23.364;2022-10-04T12:49:14;95618.66;;;17.03;47.79
5691;BME280;2870;42.680;23.364;2022-10-04T12:51:51;95609.75;;;17.26;46.73
5691;BME280;2870;42.680;23.364;2022-10-04T12:54:38;95613.00;;;17.13;47.27
5691;BME280;2870;42.680;23.364;2022-10-04T13:00:03;95613.69;;;17.60;47.13
5691;BME280;2870;42.680;23.364;2022-10-04T13:02:43;95606.66;;;17.51;46.60
5691;BME280;2870;42.680;23.364;2022-10-04T13:05:21;95607.94;;;17.21;46.59
5691;BME280;2870;42.680;23.364;2022-10-04T13:08:02;95612.63;;;17.36;46.56
5691;BME280;2870;42.680;23.364;2022-10-04T13:10:41;95608.44;;;17.46;46.80
5691;BME280;2870;42.680;23.364;2022-10-04T13:13:36;95603.56;;;17.95;46.39
5691;BME280;2870;42.680;23.364;2022-10-04T13:16:11;95602.50;;;18.10;45.77
5691;BME280;2870;42.680;23.364;2022-10-04T13:18:52;95596.38;;;17.94;45.32
5691;BME280;2870;42.680;23.364;2022-10-04T13:21:49;95608.91;;;18.01;46.70
5691;BME280;2870;42.680;23.364;2022-10-04T13:24:27;95606.84;;;18.01;46.37
5691;BME280;2870;42.680;23.364;2022-10-04T13:27:24;95587.44;;;17.88;46.63
5691;BME280;2870;42.680;23.364;2022-10-04T13:29:59;95599.97;;;16.90;46.65
5691;BME280;2870;42.680;23.364;2022-10-04T13:32:29;95603.38;;;16.62;47.50
5691;BME280;2870;42.680;23.364;2022-10-04T13:35:03;95611.63;;;16.67;48.13
5691;BME280;2870;42.680;23.364;2022-10-04T13:37:36;95613.13;;;17.05;48.57
5691;BME280;2870;42.680;23.364;2022-10-04T13:40:37;95611.47;;;16.92;47.29
5691;BME280;2870;42.680;23.364;2022-10-04T13:43:28;95604.03;;;17.07;48.18
5691;BME280;2870;42.680;23.364;2022-10-04T13:46:08;95615.53;;;17.09;47.55
5691;BME280;2870;42.680;23.364;2022-10-04T13:48:47;95609.66;;;16.87;47.72
5691;BME280;2870;42.680;23.364;2022-10-04T13:51:33;95632.28;;;16.51;48.02
5691;BME280;2870;42.680;23.364;2022-10-04T13:54:17;95622.00;;;15.84;49.32
5691;BME280;2870;42.680;23.364;2022-10-04T13:57:17;95624.53;;;16.24;49.44
5691;BME280;2870;42.680;23.364;2022-10-04T13:59:52;95617.31;;;16.40;48.72
5691;BME280;2870;42.680;23.364;2022-10-04T14:06:01;95631.72;;;16.89;47.58
5691;BME280;2870;42.680;23.364;2022-10-04T14:11:54;95636.69;;;16.44;49.51
5691;BME280;2870;42.680;23.364;2022-10-04T14:18:00;95642.88;;;16.06;49.79
5691;BME280;2870;42.680;23.364;2022-10-04T14:23:49;95645.38;;;15.84;49.75
5691;BME280;2870;42.680;23.364;2022-10-04T14:26:41;95647.84;;;15.98;50.81
5691;BME280;2870;42.680;23.364;2022-10-04T14:32:35;95659.50;;;16.02;49.57
5691;BME280;2870;42.680;23.364;2022-10-04T14:35:15;95662.50;;;15.86;49.92
5691;BME280;2870;42.680;23.364;2022-10-04T14:47:17;95664.69;;;15.96;52.14
5691;BME280;2870;42.680;23.364;2022-10-04T14:50:00;95661.38;;;15.47;50.83
5691;BME280;2870;42.680;23.364;2022-10-04T14:52:43;95672.78;;;15.57;51.34
5691;BME280;2870;42.680;23.364;2022-10-04T14:55:28;95677.69;;;15.14;52.05
5691;BME280;2870;42.680;23.364;2022-10-04T14:58:10;95676.56;;;15.17;52.34
5691;BME280;2870;42.680;23.364;2022-10-04T15:00:54;95682.81;;;15.08;53.31
5691;BME280;2870;42.680;23.364;2022-10-04T15:03:29;95681.66;;;14.86;53.19
5691;BME280;2870;42.680;23.364;2022-10-04T15:06:25;95690.50;;;14.90;53.99
5691;BME280;2870;42.680;23.364;2022-10-04T15:09:19;95687.13;;;14.59;54.92
5691;BME280;2870;42.680;23.364;2022-10-04T15:11:52;95701.56;;;14.96;56.27
5691;BME280;2870;42.680;23.364;2022-10-04T15:14:33;95704.69;;;15.07;56.20
5691;BME280;2870;42.680;23.364;2022-10-04T15:17:06;95702.66;;;15.25;55.84
5691;BME280;2870;42.680;23.364;2022-10-04T15:19:56;95719.72;;;15.35;54.73
5691;BME280;2870;42.680;23.364;2022-10-04T15:22:27;95717.53;;;15.01;54.73
5691;BME280;2870;42.680;23.364;2022-10-04T15:24:58;95716.91;;;14.85;55.55
5691;BME280;2870;42.680;23.364;2022-10-04T15:27:47;95723.59;;;14.97;57.62